sensor_id;sensor_type;location;lat;lon;timestamp;temperature;humidity
20208;DHT22;10263;48.716;8.760;2023-10-31T00:04:04;10.10;99.90
20208;DHT22;10263;48.716;8.760;2023-10-31T00:06:31;10.50;99.90
20208;DHT22;10263;48.716;8.760;2023-10-31T00:08:58;10.30;99.90
20208;DHT22;10263;48.716;8.760;2023-10-31T00:13:51;9.80;99.90
20208;DHT22;10263;48.716;8.760;2023-10-31T00:18:45;9.80;99.90
20208;DHT22;10263;48.716;8.760;2023-10-31T00:21:13;9.90;99.90
20208;DHT22;10263;48.716;8.760;2023-10-31T00:23:44;9.70;99.90
20208;DHT22;10263;48.716;8.760;2023-10-31T00:26:11;9.80;99.90
20208;DHT22;10263;48.716;8.760;2023-10-31T00:28:41;9.80;99.90
20208;DHT22;10263;48.716;8.760;2023-10-31T00:31:08;9.70;99.90
20208;DHT22;10263;48.716;8.760;2023-10-31T00:36:04;9.80;99.90
20208;DHT22;10263;48.716;8.760;2023-10-31T00:38:32;9.30;99.90
20208;DHT22;10263;48.716;8.760;2023-10-31T00:40:59;9.60;99.90
20208;DHT22;10263;48.716;8.760;2023-10-31T00:45:53;9.20;99.90
20208;DHT22;10263;48.716;8.760;2023-10-31T00:50:47;9.80;99.90
20208;DHT22;10263;48.716;8.760;2023-10-31T00:55:45;9.80;99.90
20208;DHT22;10263;48.716;8.760;2023-10-31T01:03:07;8.90;99.90
20208;DHT22;10263;48.716;8.760;2023-10-31T01:05:33;8.90;99.90
20208;DHT22;10263;48.716;8.760;2023-10-31T01:08:00;9.00;99.90
20208;DHT22;10263;48.716;8.760;2023-10-31T01:10:27;9.30;99.90
20208;DHT22;10263;48.716;8.760;2023-10-31T01:12:55;9.70;99.90
20208;DHT22;10263;48.716;8.760;2023-10-31T01:22:43;9.30;99.90
20208;DHT22;10263;48.716;8.760;2023-10-31T01:27:37;9.30;99.90
20208;DHT22;10263;48.716;8.760;2023-10-31T01:30:07;9.10;99.90
20208;DHT22;10263;48.716;8.760;2023-10-31T01:32:34;9.20;99.90
20208;DHT22;10263;48.716;8.760;2023-10-31T01:35:01;9.50;99.90
20208;DHT22;10263;48.716;8.760;2023-10-31T01:39:56;9.40;99.90
20208;DHT22;10263;48.716;8.760;2023-10-31T01:47:19;9.20;99.90
20208;DHT22;10263;48.716;8.760;2023-10-31T01:52:15;9.20;99.90
20208;DHT22;10263;48.716;8.760;2023-10-31T01:54:43;10.10;99.90
20208;DHT22;10263;48.716;8.760;2023-10-31T01:59:39;9.40;99.90
20208;DHT22;10263;48.716;8.760;2023-10-31T02:04:34;8.90;99.90
20208;DHT22;10263;48.716;8.760;2023-10-31T02:07:01;9.50;99.90
20208;DHT22;10263;48.716;8.760;2023-10-31T02:09:28;9.00;99.90
20208;DHT22;10263;48.716;8.760;2023-10-31T02:11:56;9.10;99.90
20208;DHT22;10263;48.716;8.760;2023-10-31T02:14:24;9.30;99.90
20208;DHT22;10263;48.716;8.760;2023-10-31T02:16:51;9.10;99.90
20208;DHT22;10263;48.716;8.760;2023-10-31T02:19:19;9.00;99.90
20208;DHT22;10263;48.716;8.760;2023-10-31T02:21:48;9.70;99.90
20208;DHT22;10263;48.716;8.760;2023-10-31T02:39:02;9.20;99.90
20208;DHT22;10263;48.716;8.760;2023-10-31T02:41:28;9.10;99.90
20208;DHT22;10263;48.716;8.760;2023-10-31T02:43:55;9.40;99.90
20208;DHT22;10263;48.716;8.760;2023-10-31T02:46:23;9.50;99.90
20208;DHT22;10263;48.716;8.760;2023-10-31T02:51:18;9.40;99.90
20208;DHT22;10263;48.716;8.760;2023-10-31T02:53:45;8.90;99.90
20208;DHT22;10263;48.716;8.760;2023-10-31T02:56:13;9.00;99.90
20208;DHT22;10263;48.716;8.760;2023-10-31T02:58:40;9.00;99.90
20208;DHT22;10263;48.716;8.760;2023-10-31T03:01:07;8.90;99.90
20208;DHT22;10263;48.716;8.760;2023-10-31T03:03:34;9.20;99.90
20208;DHT22;10263;48.716;8.760;2023-10-31T03:06:01;8.70;99.90
20208;DHT22;10263;48.716;8.760;2023-10-31T03:13:25;9.10;99.90
20208;DHT22;10263;48.716;8.760;2023-10-31T03:23:14;8.90;99.90
20208;DHT22;10263;48.716;8.760;2023-10-31T03:25:41;9.20;99.90
20208;DHT22;10263;48.716;8.760;2023-10-31T03:28:18;9.20;99.90
20208;DHT22;10263;48.716;8.760;2023-10-31T03:30:47;8.90;99.90
20208;DHT22;10263;48.716;8.760;2023-10-31T03:33:14;8.90;99.90
20208;DHT22;10263;48.716;8.760;2023-10-31T03:35:41;8.90;99.90
20208;DHT22;10263;48.716;8.760;2023-10-31T03:38:08;8.60;99.90
20208;DHT22;10263;48.716;8.760;2023-10-31T03:40:35;8.90;99.90
20208;DHT22;10263;48.716;8.760;2023-10-31T03:43:03;8.60;99.90
20208;DHT22;10263;48.716;8.760;2023-10-31T03:45:30;8.60;99.90
20208;DHT22;10263;48.716;8.760;2023-10-31T03:48:00;9.20;99.90
20208;DHT22;10263;48.716;8.760;2023-10-31T03:55:23;8.50;99.90
20208;DHT22;10263;48.716;8.760;2023-10-31T04:00:18;8.70;99.90
20208;DHT22;10263;48.716;8.760;2023-10-31T04:02:45;8.70;99.90
20208;DHT22;10263;48.716;8.760;2023-10-31T04:05:13;8.70;99.90
20208;DHT22;10263;48.716;8.760;2023-10-31T04:07:40;8.50;99.90
20208;DHT22;10263;48.716;8.760;2023-10-31T04:10:07;8.60;99.90
20208;DHT22;10263;48.716;8.760;2023-10-31T04:22:24;8.60;99.90
20208;DHT22;10263;48.716;8.760;2023-10-31T04:24:51;8.30;99.90
20208;DHT22;10263;48.716;8.760;2023-10-31T04:27:18;8.30;99.90
20208;DHT22;10263;48.716;8.760;2023-10-31T04:29:45;8.50;99.90
20208;DHT22;10263;48.716;8.760;2023-10-31T04:32:12;8.40;99.90
20208;DHT22;10263;48.716;8.760;2023-10-31T04:34:39;8.10;99.90
20208;DHT22;10263;48.716;8.760;2023-10-31T04:37:05;8.20;99.90
20208;DHT22;10263;48.716;8.760;2023-10-31T04:39:33;8.50;99.90
20208;DHT22;10263;48.716;8.760;2023-10-31T04:49:22;8.30;99.90
20208;DHT22;10263;48.716;8.760;2023-10-31T04:51:49;8.30;99.90
20208;DHT22;10263;48.716;8.760;2023-10-31T04:54:15;8.20;99.90
20208;DHT22;10263;48.716;8.760;2023-10-31T04:59:10;8.40;99.90
20208;DHT22;10263;48.716;8.760;2023-10-31T05:01:37;8.60;99.90
20208;DHT22;10263;48.716;8.760;2023-10-31T05:04:04;8.70;99.90
20208;DHT22;10263;48.716;8.760;2023-10-31T05:06:31;8.30;99.90
20208;DHT22;10263;48.716;8.760;2023-10-31T05:08:58;8.40;99.90
20208;DHT22;10263;48.716;8.760;2023-10-31T05:11:25;8.10;99.90
20208;DHT22;10263;48.716;8.760;2023-10-31T05:16:20;8.50;99.90
20208;DHT22;10263;48.716;8.760;2023-10-31T05:18:47;8.20;99.90
20208;DHT22;10263;48.716;8.760;2023-10-31T05:21:18;8.20;99.90
20208;DHT22;10263;48.716;8.760;2023-10-31T05:28:40;8.30;99.90
20208;DHT22;10263;48.716;8.760;2023-10-31T05:31:08;7.90;99.90
20208;DHT22;10263;48.716;8.760;2023-10-31T05:33:35;7.80;99.90
20208;DHT22;10263;48.716;8.760;2023-10-31T05:36:02;7.60;99.90
20208;DHT22;10263;48.716;8.760;2023-10-31T05:38:29;8.30;99.90
20208;DHT22;10263;48.716;8.760;2023-10-31T05:45:50;7.80;99.90
20208;DHT22;10263;48.716;8.760;2023-10-31T05:48:18;8.40;99.90
20208;DHT22;10263;48.716;8.760;2023-10-31T05:50:45;7.90;99.90
20208;DHT22;10263;48.716;8.760;2023-10-31T05:53:12;8.40;99.90
20208;DHT22;10263;48.716;8.760;2023-10-31T05:55:39;7.90;99.90
20208;DHT22;10263;48.716;8.760;2023-10-31T05:58:06;8.40;99.90
20208;DHT22;10263;48.716;8.760;2023-10-31T06:05:27;7.90;99.90
20208;DHT22;10263;48.716;8.760;2023-10-31T06:07:54;8.10;99.90
20208;DHT22;10263;48.716;8.760;2023-10-31T06:10:21;7.90;99.90
20208;DHT22;10263;48.716;8.760;2023-10-31T06:12:49;7.90;99.90
20208;DHT22;10263;48.716;8.760;2023-10-31T06:15:16;7.80;99.90
20208;DHT22;10263;48.716;8.760;2023-10-31T06:20:11;8.00;99.90
20208;DHT22;10263;48.716;8.760;2023-10-31T06:22:39;7.70;99.90
20208;DHT22;10263;48.716;8.760;2023-10-31T06:25:06;7.70;99.90
20208;DHT22;10263;48.716;8.760;2023-10-31T06:27:33;7.70;99.90
20208;DHT22;10263;48.716;8.760;2023-10-31T06:30:00;7.80;99.90
20208;DHT22;10263;48.716;8.760;2023-10-31T06:32:26;7.90;99.90
20208;DHT22;10263;48.716;8.760;2023-10-31T06:34:53;8.20;99.90
20208;DHT22;10263;48.716;8.760;2023-10-31T06:37:20;7.80;99.90
20208;DHT22;10263;48.716;8.760;2023-10-31T06:39:48;7.60;99.90
20208;DHT22;10263;48.716;8.760;2023-10-31T06:42:15;7.80;99.90
20208;DHT22;10263;48.716;8.760;2023-10-31T06:44:41;7.80;99.90
20208;DHT22;10263;48.716;8.760;2023-10-31T06:47:08;8.00;99.90
20208;DHT22;10263;48.716;8.760;2023-10-31T06:49:35;8.30;99.90
20208;DHT22;10263;48.716;8.760;2023-10-31T06:52:02;6.70;99.90
20208;DHT22;10263;48.716;8.760;2023-10-31T06:56:58;8.30;99.90
20208;DHT22;10263;48.716;8.760;2023-10-31T07:01:54;8.10;99.90
20208;DHT22;10263;48.716;8.760;2023-10-31T07:04:21;7.90;99.90
20208;DHT22;10263;48.716;8.760;2023-10-31T07:09:18;8.10;99.90
20208;DHT22;10263;48.716;8.760;2023-10-31T07:11:44;8.40;99.90
20208;DHT22;10263;48.716;8.760;2023-10-31T07:14:12;8.20;99.90
20208;DHT22;10263;48.716;8.760;2023-10-31T07:19:09;8.00;99.90
20208;DHT22;10263;48.716;8.760;2023-10-31T07:24:04;7.90;99.90
20208;DHT22;10263;48.716;8.760;2023-10-31T07:26:31;8.60;99.90
20208;DHT22;10263;48.716;8.760;2023-10-31T07:28:57;8.60;99.90
20208;DHT22;10263;48.716;8.760;2023-10-31T07:31:26;8.40;99.90
20208;DHT22;10263;48.716;8.760;2023-10-31T07:36:20;8.10;99.90
20208;DHT22;10263;48.716;8.760;2023-10-31T07:41:14;8.20;99.90
20208;DHT22;10263;48.716;8.760;2023-10-31T07:43:41;8.80;99.90
20208;DHT22;10263;48.716;8.760;2023-10-31T07:46:09;8.40;99.90
20208;DHT22;10263;48.716;8.760;2023-10-31T07:48:37;8.70;99.90
20208;DHT22;10263;48.716;8.760;2023-10-31T07:51:04;8.60;99.90
20208;DHT22;10263;48.716;8.760;2023-10-31T07:53:31;8.90;99.90
20208;DHT22;10263;48.716;8.760;2023-10-31T07:55:58;8.40;99.90
20208;DHT22;10263;48.716;8.760;2023-10-31T07:58:24;9.20;99.90
20208;DHT22;10263;48.716;8.760;2023-10-31T08:00:51;8.50;99.90
20208;DHT22;10263;48.716;8.760;2023-10-31T08:03:18;9.00;99.90
20208;DHT22;10263;48.716;8.760;2023-10-31T08:05:46;9.00;99.90
20208;DHT22;10263;48.716;8.760;2023-10-31T08:08:13;8.90;99.90
20208;DHT22;10263;48.716;8.760;2023-10-31T08:10:40;9.00;99.90
20208;DHT22;10263;48.716;8.760;2023-10-31T08:13:06;9.00;99.90
20208;DHT22;10263;48.716;8.760;2023-10-31T08:20:27;8.70;99.90
20208;DHT22;10263;48.716;8.760;2023-10-31T08:23:00;9.00;99.90
20208;DHT22;10263;48.716;8.760;2023-10-31T08:27:54;9.00;99.90
20208;DHT22;10263;48.716;8.760;2023-10-31T08:30:22;9.10;99.90
20208;DHT22;10263;48.716;8.760;2023-10-31T08:37:43;9.20;99.90
20208;DHT22;10263;48.716;8.760;2023-10-31T08:40:12;9.20;99.90
20208;DHT22;10263;48.716;8.760;2023-10-31T08:42:38;9.40;99.90
20208;DHT22;10263;48.716;8.760;2023-10-31T08:45:06;9.70;99.90
20208;DHT22;10263;48.716;8.760;2023-10-31T08:47:33;9.50;99.90
20208;DHT22;10263;48.716;8.760;2023-10-31T08:50:00;9.80;99.90
20208;DHT22;10263;48.716;8.760;2023-10-31T08:54:54;9.30;99.90
20208;DHT22;10263;48.716;8.760;2023-10-31T08:57:23;9.70;99.90
20208;DHT22;10263;48.716;8.760;2023-10-31T08:59:49;10.10;99.90
20208;DHT22;10263;48.716;8.760;2023-10-31T09:02:16;9.70;99.90
20208;DHT22;10263;48.716;8.760;2023-10-31T09:04:43;10.10;99.90
20208;DHT22;10263;48.716;8.760;2023-10-31T09:09:37;10.20;99.90
20208;DHT22;10263;48.716;8.760;2023-10-31T09:12:04;10.30;99.90
20208;DHT22;10263;48.716;8.760;2023-10-31T09:14:32;10.20;99.90
20208;DHT22;10263;48.716;8.760;2023-10-31T09:17:00;10.90;99.90
20208;DHT22;10263;48.716;8.760;2023-10-31T09:19:28;10.70;99.90
20208;DHT22;10263;48.716;8.760;2023-10-31T09:21:55;11.50;99.90
20208;DHT22;10263;48.716;8.760;2023-10-31T09:24:24;11.40;99.90
20208;DHT22;10263;48.716;8.760;2023-10-31T09:29:18;11.30;99.90
20208;DHT22;10263;48.716;8.760;2023-10-31T09:31:46;11.30;99.90
20208;DHT22;10263;48.716;8.760;2023-10-31T09:34:14;9.90;99.90
20208;DHT22;10263;48.716;8.760;2023-10-31T09:36:42;10.70;99.90
20208;DHT22;10263;48.716;8.760;2023-10-31T09:39:09;11.20;99.90
20208;DHT22;10263;48.716;8.760;2023-10-31T09:41:36;10.50;99.90
20208;DHT22;10263;48.716;8.760;2023-10-31T09:48:59;11.20;99.90
20208;DHT22;10263;48.716;8.760;2023-10-31T09:51:27;11.00;99.90
20208;DHT22;10263;48.716;8.760;2023-10-31T09:53:54;11.00;99.90
20208;DHT22;10263;48.716;8.760;2023-10-31T09:56:22;11.50;99.90
20208;DHT22;10263;48.716;8.760;2023-10-31T09:58:48;11.60;99.90
20208;DHT22;10263;48.716;8.760;2023-10-31T10:01:15;11.80;99.90
20208;DHT22;10263;48.716;8.760;2023-10-31T10:03:42;12.20;99.90
20208;DHT22;10263;48.716;8.760;2023-10-31T10:06:11;12.20;99.90
20208;DHT22;10263;48.716;8.760;2023-10-31T10:11:06;11.80;99.90
20208;DHT22;10263;48.716;8.760;2023-10-31T10:13:32;11.70;99.90
20208;DHT22;10263;48.716;8.760;2023-10-31T10:16:00;11.70;99.90
20208;DHT22;10263;48.716;8.760;2023-10-31T10:18:27;12.10;99.90
20208;DHT22;10263;48.716;8.760;2023-10-31T10:20:55;11.90;99.90
20208;DHT22;10263;48.716;8.760;2023-10-31T10:23:25;12.10;99.90
20208;DHT22;10263;48.716;8.760;2023-10-31T10:25:53;12.00;99.90
20208;DHT22;10263;48.716;8.760;2023-10-31T10:28:20;12.40;99.90
20208;DHT22;10263;48.716;8.760;2023-10-31T10:30:47;12.20;99.90
20208;DHT22;10263;48.716;8.760;2023-10-31T10:35:42;12.60;99.90
20208;DHT22;10263;48.716;8.760;2023-10-31T10:38:11;12.10;99.90
20208;DHT22;10263;48.716;8.760;2023-10-31T10:40:42;12.40;99.90
20208;DHT22;10263;48.716;8.760;2023-10-31T10:43:12;12.40;99.90
20208;DHT22;10263;48.716;8.760;2023-10-31T10:45:42;12.20;99.90
20208;DHT22;10263;48.716;8.760;2023-10-31T10:48:11;12.00;99.90
20208;DHT22;10263;48.716;8.760;2023-10-31T10:50:42;11.80;99.90
20208;DHT22;10263;48.716;8.760;2023-10-31T10:53:16;12.10;99.90
20208;DHT22;10263;48.716;8.760;2023-10-31T10:55:51;12.40;99.90
20208;DHT22;10263;48.716;8.760;2023-10-31T10:58:24;12.60;99.90
20208;DHT22;10263;48.716;8.760;2023-10-31T11:00:53;12.40;99.90
20208;DHT22;10263;48.716;8.760;2023-10-31T11:03:22;12.80;99.90
20208;DHT22;10263;48.716;8.760;2023-10-31T11:05:50;12.40;99.90
20208;DHT22;10263;48.716;8.760;2023-10-31T11:08:18;13.20;99.90
20208;DHT22;10263;48.716;8.760;2023-10-31T11:10:48;12.50;99.90
20208;DHT22;10263;48.716;8.760;2023-10-31T11:15:43;12.50;99.90
20208;DHT22;10263;48.716;8.760;2023-10-31T11:18:11;12.60;99.90
20208;DHT22;10263;48.716;8.760;2023-10-31T11:20:39;12.80;99.90
20208;DHT22;10263;48.716;8.760;2023-10-31T11:23:06;12.60;99.90
20208;DHT22;10263;48.716;8.760;2023-10-31T11:25:33;12.80;99.90
20208;DHT22;10263;48.716;8.760;2023-10-31T11:28:15;13.10;99.90
20208;DHT22;10263;48.716;8.760;2023-10-31T11:30:43;12.60;99.90
20208;DHT22;10263;48.716;8.760;2023-10-31T11:33:12;12.60;99.90
20208;DHT22;10263;48.716;8.760;2023-10-31T11:35:40;12.10;99.90
20208;DHT22;10263;48.716;8.760;2023-10-31T11:38:08;12.50;99.90
20208;DHT22;10263;48.716;8.760;2023-10-31T11:40:37;12.50;99.90
20208;DHT22;10263;48.716;8.760;2023-10-31T11:43:14;12.20;99.90
20208;DHT22;10263;48.716;8.760;2023-10-31T11:45:42;12.40;99.90
20208;DHT22;10263;48.716;8.760;2023-10-31T11:48:10;12.40;99.90
20208;DHT22;10263;48.716;8.760;2023-10-31T11:53:06;12.30;99.90
20208;DHT22;10263;48.716;8.760;2023-10-31T11:55:35;12.10;99.90
20208;DHT22;10263;48.716;8.760;2023-10-31T11:58:16;11.90;99.90
20208;DHT22;10263;48.716;8.760;2023-10-31T12:00:44;11.80;99.90
20208;DHT22;10263;48.716;8.760;2023-10-31T12:05:39;11.80;99.90
20208;DHT22;10263;48.716;8.760;2023-10-31T12:08:06;11.80;99.90
20208;DHT22;10263;48.716;8.760;2023-10-31T12:10:32;12.00;99.90
20208;DHT22;10263;48.716;8.760;2023-10-31T12:12:59;11.80;99.90
20208;DHT22;10263;48.716;8.760;2023-10-31T12:15:27;11.90;99.90
20208;DHT22;10263;48.716;8.760;2023-10-31T12:17:58;12.20;99.90
20208;DHT22;10263;48.716;8.760;2023-10-31T12:23:03;12.00;99.90
20208;DHT22;10263;48.716;8.760;2023-10-31T12:25:30;12.20;99.90
20208;DHT22;10263;48.716;8.760;2023-10-31T12:28:00;12.10;99.90
20208;DHT22;10263;48.716;8.760;2023-10-31T12:30:28;12.00;99.90
20208;DHT22;10263;48.716;8.760;2023-10-31T12:32:56;11.90;99.90
20208;DHT22;10263;48.716;8.760;2023-10-31T12:35:24;12.00;99.90
20208;DHT22;10263;48.716;8.760;2023-10-31T12:37:52;12.20;99.90
20208;DHT22;10263;48.716;8.760;2023-10-31T12:40:20;12.30;99.90
20208;DHT22;10263;48.716;8.760;2023-10-31T12:42:48;12.50;99.90
20208;DHT22;10263;48.716;8.760;2023-10-31T12:45:16;11.80;99.90
20208;DHT22;10263;48.716;8.760;2023-10-31T12:48:00;12.20;99.90
20208;DHT22;10263;48.716;8.760;2023-10-31T12:50:29;12.40;99.90
20208;DHT22;10263;48.716;8.760;2023-10-31T12:52:56;12.20;99.90
20208;DHT22;10263;48.716;8.760;2023-10-31T12:55:26;12.00;99.90
20208;DHT22;10263;48.716;8.760;2023-10-31T12:57:53;11.90;99.90
20208;DHT22;10263;48.716;8.760;2023-10-31T13:00:22;12.20;99.90
20208;DHT22;10263;48.716;8.760;2023-10-31T13:03:00;12.10;99.90
20208;DHT22;10263;48.716;8.760;2023-10-31T13:05:28;12.40;99.90
20208;DHT22;10263;48.716;8.760;2023-10-31T13:07:57;12.30;99.90
20208;DHT22;10263;48.716;8.760;2023-10-31T13:10:27;12.50;99.90
20208;DHT22;10263;48.716;8.760;2023-10-31T13:15:23;12.50;99.90
20208;DHT22;10263;48.716;8.760;2023-10-31T13:17:52;12.90;99.90
20208;DHT22;10263;48.716;8.760;2023-10-31T13:20:20;13.10;99.90
20208;DHT22;10263;48.716;8.760;2023-10-31T13:22:47;13.40;99.90
20208;DHT22;10263;48.716;8.760;2023-10-31T13:25:15;13.30;99.90
20208;DHT22;10263;48.716;8.760;2023-10-31T13:27:43;13.40;99.90
20208;DHT22;10263;48.716;8.760;2023-10-31T13:30:11;13.00;99.90
20208;DHT22;10263;48.716;8.760;2023-10-31T13:35:08;13.50;99.90
20208;DHT22;10263;48.716;8.760;2023-10-31T13:37:34;13.80;99.90
20208;DHT22;10263;48.716;8.760;2023-10-31T13:42:28;13.70;99.90
20208;DHT22;10263;48.716;8.760;2023-10-31T13:44:55;13.70;99.90
20208;DHT22;10263;48.716;8.760;2023-10-31T13:47:22;13.60;99.90
20208;DHT22;10263;48.716;8.760;2023-10-31T13:52:17;14.00;99.90
20208;DHT22;10263;48.716;8.760;2023-10-31T13:59:39;13.70;99.90
20208;DHT22;10263;48.716;8.760;2023-10-31T14:04:34;13.80;99.90
20208;DHT22;10263;48.716;8.760;2023-10-31T14:07:01;13.70;99.90
20208;DHT22;10263;48.716;8.760;2023-10-31T14:09:29;13.50;99.90
20208;DHT22;10263;48.716;8.760;2023-10-31T14:11:56;13.60;99.90
20208;DHT22;10263;48.716;8.760;2023-10-31T14:14:23;13.70;99.90
20208;DHT22;10263;48.716;8.760;2023-10-31T14:16:50;12.90;99.90
20208;DHT22;10263;48.716;8.760;2023-10-31T14:19:16;13.50;99.90
20208;DHT22;10263;48.716;8.760;2023-10-31T14:21:43;13.00;99.90
20208;DHT22;10263;48.716;8.760;2023-10-31T14:24:10;13.50;99.90
20208;DHT22;10263;48.716;8.760;2023-10-31T14:26:38;13.10;99.90
20208;DHT22;10263;48.716;8.760;2023-10-31T14:29:06;12.70;99.90
20208;DHT22;10263;48.716;8.760;2023-10-31T14:31:38;12.50;99.90
20208;DHT22;10263;48.716;8.760;2023-10-31T14:34:05;12.80;99.90
20208;DHT22;10263;48.716;8.760;2023-10-31T14:36:32;12.80;99.90
20208;DHT22;10263;48.716;8.760;2023-10-31T14:38:59;12.70;99.90
20208;DHT22;10263;48.716;8.760;2023-10-31T14:41:27;12.60;99.90
20208;DHT22;10263;48.716;8.760;2023-10-31T14:43:55;12.30;99.90
20208;DHT22;10263;48.716;8.760;2023-10-31T14:46:22;12.50;99.90
20208;DHT22;10263;48.716;8.760;2023-10-31T14:48:49;12.50;99.90
20208;DHT22;10263;48.716;8.760;2023-10-31T14:51:15;12.80;99.90
20208;DHT22;10263;48.716;8.760;2023-10-31T14:58:37;12.40;99.90
20208;DHT22;10263;48.716;8.760;2023-10-31T15:01:06;12.40;99.90
20208;DHT22;10263;48.716;8.760;2023-10-31T15:03:32;12.30;99.90
20208;DHT22;10263;48.716;8.760;2023-10-31T15:05:59;11.90;99.90
20208;DHT22;10263;48.716;8.760;2023-10-31T15:08:26;11.70;99.90
20208;DHT22;10263;48.716;8.760;2023-10-31T15:13:21;12.30;99.90
20208;DHT22;10263;48.716;8.760;2023-10-31T15:15:49;11.40;99.90
20208;DHT22;10263;48.716;8.760;2023-10-31T15:18:17;12.00;99.90
20208;DHT22;10263;48.716;8.760;2023-10-31T15:20:44;11.90;99.90
20208;DHT22;10263;48.716;8.760;2023-10-31T15:23:11;12.10;99.90
20208;DHT22;10263;48.716;8.760;2023-10-31T15:25:39;11.20;99.90
20208;DHT22;10263;48.716;8.760;2023-10-31T15:28:06;11.60;99.90
20208;DHT22;10263;48.716;8.760;2023-10-31T15:30:33;11.70;99.90
20208;DHT22;10263;48.716;8.760;2023-10-31T15:33:00;11.80;99.90
20208;DHT22;10263;48.716;8.760;2023-10-31T15:35:28;11.70;99.90
20208;DHT22;10263;48.716;8.760;2023-10-31T15:42:49;11.50;99.90
20208;DHT22;10263;48.716;8.760;2023-10-31T15:45:16;11.30;99.90
20208;DHT22;10263;48.716;8.760;2023-10-31T15:47:43;11.00;99.90
20208;DHT22;10263;48.716;8.760;2023-10-31T15:50:10;11.40;99.90
20208;DHT22;10263;48.716;8.760;2023-10-31T15:52:38;10.80;99.90
20208;DHT22;10263;48.716;8.760;2023-10-31T15:55:07;11.40;99.90
20208;DHT22;10263;48.716;8.760;2023-10-31T16:00:01;10.80;99.90
20208;DHT22;10263;48.716;8.760;2023-10-31T16:07:24;11.10;99.90
20208;DHT22;10263;48.716;8.760;2023-10-31T16:09:53;10.80;99.90
20208;DHT22;10263;48.716;8.760;2023-10-31T16:12:20;10.90;99.90
20208;DHT22;10263;48.716;8.760;2023-10-31T16:17:14;10.40;99.90
20208;DHT22;10263;48.716;8.760;2023-10-31T16:19:41;10.70;99.90
20208;DHT22;10263;48.716;8.760;2023-10-31T16:22:08;10.10;99.90
20208;DHT22;10263;48.716;8.760;2023-10-31T16:27:04;10.70;99.90
20208;DHT22;10263;48.716;8.760;2023-10-31T16:31:59;10.80;99.90
20208;DHT22;10263;48.716;8.760;2023-10-31T16:34:26;10.30;99.90
20208;DHT22;10263;48.716;8.760;2023-10-31T16:41:47;10.30;99.90
20208;DHT22;10263;48.716;8.760;2023-10-31T16:44:15;10.20;99.90
20208;DHT22;10263;48.716;8.760;2023-10-31T16:46:43;10.00;99.90
20208;DHT22;10263;48.716;8.760;2023-10-31T16:49:11;10.60;99.90
20208;DHT22;10263;48.716;8.760;2023-10-31T16:54:06;10.20;99.90
20208;DHT22;10263;48.716;8.760;2023-10-31T16:56:33;10.40;99.90
20208;DHT22;10263;48.716;8.760;2023-10-31T16:59:00;10.30;99.90
20208;DHT22;10263;48.716;8.760;2023-10-31T17:01:28;10.50;99.90
20208;DHT22;10263;48.716;8.760;2023-10-31T17:03:56;9.80;99.90
20208;DHT22;10263;48.716;8.760;2023-10-31T17:06:22;10.10;99.90
20208;DHT22;10263;48.716;8.760;2023-10-31T17:08:49;9.90;99.90
20208;DHT22;10263;48.716;8.760;2023-10-31T17:11:16;10.20;99.90
20208;DHT22;10263;48.716;8.760;2023-10-31T17:13:43;9.50;99.90
20208;DHT22;10263;48.716;8.760;2023-10-31T17:16:09;9.70;99.90
20208;DHT22;10263;48.716;8.760;2023-10-31T17:18:37;9.60;99.90
20208;DHT22;10263;48.716;8.760;2023-10-31T17:21:05;10.10;99.90
20208;DHT22;10263;48.716;8.760;2023-10-31T17:28:26;9.50;99.90
20208;DHT22;10263;48.716;8.760;2023-10-31T17:35:54;9.40;99.90
20208;DHT22;10263;48.716;8.760;2023-10-31T17:38:21;9.60;99.90
20208;DHT22;10263;48.716;8.760;2023-10-31T17:43:15;9.70;99.90
20208;DHT22;10263;48.716;8.760;2023-10-31T17:45:42;9.30;99.90
20208;DHT22;10263;48.716;8.760;2023-10-31T17:48:09;9.30;99.90
20208;DHT22;10263;48.716;8.760;2023-10-31T17:50:35;9.60;99.90
20208;DHT22;10263;48.716;8.760;2023-10-31T17:53:03;8.90;99.90
20208;DHT22;10263;48.716;8.760;2023-10-31T17:55:30;9.80;99.90
20208;DHT22;10263;48.716;8.760;2023-10-31T18:00:26;9.40;99.90
20208;DHT22;10263;48.716;8.760;2023-10-31T18:02:52;9.60;99.90
20208;DHT22;10263;48.716;8.760;2023-10-31T18:05:23;9.30;99.90
20208;DHT22;10263;48.716;8.760;2023-10-31T18:10:19;9.20;99.90
20208;DHT22;10263;48.716;8.760;2023-10-31T18:12:46;9.50;99.90
20208;DHT22;10263;48.716;8.760;2023-10-31T18:20:10;9.40;99.90
20208;DHT22;10263;48.716;8.760;2023-10-31T18:22:37;9.30;99.90
20208;DHT22;10263;48.716;8.760;2023-10-31T18:27:32;9.70;99.90
20208;DHT22;10263;48.716;8.760;2023-10-31T18:29:59;9.90;99.90
20208;DHT22;10263;48.716;8.760;2023-10-31T18:32:26;9.40;99.90
20208;DHT22;10263;48.716;8.760;2023-10-31T18:37:20;9.50;99.90
20208;DHT22;10263;48.716;8.760;2023-10-31T18:39:47;9.40;99.90
20208;DHT22;10263;48.716;8.760;2023-10-31T18:42:14;9.50;99.90
20208;DHT22;10263;48.716;8.760;2023-10-31T18:44:43;9.60;99.90
20208;DHT22;10263;48.716;8.760;2023-10-31T18:47:10;9.30;99.90
20208;DHT22;10263;48.716;8.760;2023-10-31T18:49:37;9.90;99.90
20208;DHT22;10263;48.716;8.760;2023-10-31T18:52:04;9.40;99.90
20208;DHT22;10263;48.716;8.760;2023-10-31T18:56:58;9.70;99.90
20208;DHT22;10263;48.716;8.760;2023-10-31T18:59:25;9.80;99.90
20208;DHT22;10263;48.716;8.760;2023-10-31T19:01:53;9.70;99.90
20208;DHT22;10263;48.716;8.760;2023-10-31T19:06:51;9.60;99.90
20208;DHT22;10263;48.716;8.760;2023-10-31T19:09:18;9.70;99.90
20208;DHT22;10263;48.716;8.760;2023-10-31T19:11:45;9.90;99.90
20208;DHT22;10263;48.716;8.760;2023-10-31T19:16:40;9.80;99.90
20208;DHT22;10263;48.716;8.760;2023-10-31T19:19:08;10.10;99.90
20208;DHT22;10263;48.716;8.760;2023-10-31T19:26:29;9.70;99.90
20208;DHT22;10263;48.716;8.760;2023-10-31T19:31:24;9.60;99.90
20208;DHT22;10263;48.716;8.760;2023-10-31T19:36:22;9.50;99.90
20208;DHT22;10263;48.716;8.760;2023-10-31T19:38:50;9.60;99.90
20208;DHT22;10263;48.716;8.760;2023-10-31T19:41:19;10.30;99.90
20208;DHT22;10263;48.716;8.760;2023-10-31T19:51:07;9.70;99.90
20208;DHT22;10263;48.716;8.760;2023-10-31T19:53:35;10.00;99.90
20208;DHT22;10263;48.716;8.760;2023-10-31T19:58:30;10.10;99.90
20208;DHT22;10263;48.716;8.760;2023-10-31T20:00:57;9.80;99.90
20208;DHT22;10263;48.716;8.760;2023-10-31T20:03:23;9.40;99.90
20208;DHT22;10263;48.716;8.760;2023-10-31T20:05:50;9.80;99.90
20208;DHT22;10263;48.716;8.760;2023-10-31T20:08:19;9.80;99.90
20208;DHT22;10263;48.716;8.760;2023-10-31T20:10:47;10.00;99.90
20208;DHT22;10263;48.716;8.760;2023-10-31T20:20:37;9.20;99.90
20208;DHT22;10263;48.716;8.760;2023-10-31T20:25:31;9.60;99.90
20208;DHT22;10263;48.716;8.760;2023-10-31T20:28:00;9.60;99.90
20208;DHT22;10263;48.716;8.760;2023-10-31T20:32:55;9.80;99.90
20208;DHT22;10263;48.716;8.760;2023-10-31T20:35:22;9.70;99.90
20208;DHT22;10263;48.716;8.760;2023-10-31T20:37:49;9.70;99.90
20208;DHT22;10263;48.716;8.760;2023-10-31T20:40:17;9.50;99.90